sensor_id;sensor_type;location;lat;lon;timestamp;temperature;humidity
76855;DHT22;66343;44.588;33.450;2023-04-25T00:00:45;12.60;70.58
76855;DHT22;66343;44.588;33.450;2023-04-25T00:03:16;12.61;69.52
76855;DHT22;66343;44.588;33.450;2023-04-25T00:05:51;12.58;70.03
76855;DHT22;66343;44.588;33.450;2023-04-25T00:08:23;12.57;69.89
76855;DHT22;66343;44.588;33.450;2023-04-25T00:10:52;12.61;69.68
76855;DHT22;66343;44.588;33.450;2023-04-25T00:13:21;12.62;69.91
76855;DHT22;66343;44.588;33.450;2023-04-25T00:15:56;12.66;69.49
76855;DHT22;66343;44.588;33.450;2023-04-25T00:18:29;12.72;69.78
76855;DHT22;66343;44.588;33.450;2023-04-25T00:21:00;12.67;70.14
76855;DHT22;66343;44.588;33.450;2023-04-25T00:23:30;12.65;71.19
76855;DHT22;66343;44.588;33.450;2023-04-25T00:26:03;12.72;71.26
76855;DHT22;66343;44.588;33.450;2023-04-25T00:28:36;12.76;70.23
76855;DHT22;66343;44.588;33.450;2023-04-25T00:31:06;12.77;69.30
76855;DHT22;66343;44.588;33.450;2023-04-25T00:33:35;12.73;68.94
76855;DHT22;66343;44.588;33.450;2023-04-25T00:36:05;12.72;69.39
76855;DHT22;66343;44.588;33.450;2023-04-25T00:38:34;12.58;68.23
76855;DHT22;66343;44.588;33.450;2023-04-25T00:41:05;12.50;69.59
76855;DHT22;66343;44.588;33.450;2023-04-25T00:43:37;12.50;69.94
76855;DHT22;66343;44.588;33.450;2023-04-25T00:46:06;12.52;71.32
76855;DHT22;66343;44.588;33.450;2023-04-25T00:48:35;12.53;72.26
76855;DHT22;66343;44.588;33.450;2023-04-25T00:51:04;12.53;72.91
76855;DHT22;66343;44.588;33.450;2023-04-25T00:53:36;12.45;73.19
76855;DHT22;66343;44.588;33.450;2023-04-25T00:56:09;12.43;73.73
76855;DHT22;66343;44.588;33.450;2023-04-25T00:58:45;12.43;73.76
76855;DHT22;66343;44.588;33.450;2023-04-25T01:01:14;12.47;73.37
76855;DHT22;66343;44.588;33.450;2023-04-25T01:03:49;12.48;72.99
76855;DHT22;66343;44.588;33.450;2023-04-25T01:06:21;12.49;73.31
76855;DHT22;66343;44.588;33.450;2023-04-25T01:08:51;12.50;73.18
76855;DHT22;66343;44.588;33.450;2023-04-25T01:11:25;12.53;72.64
76855;DHT22;66343;44.588;33.450;2023-04-25T01:13:57;12.56;71.45
76855;DHT22;66343;44.588;33.450;2023-04-25T01:16:31;12.56;71.09
76855;DHT22;66343;44.588;33.450;2023-04-25T01:19:00;12.47;69.74
76855;DHT22;66343;44.588;33.450;2023-04-25T01:21:33;12.43;70.61
76855;DHT22;66343;44.588;33.450;2023-04-25T01:24:06;12.42;70.98
76855;DHT22;66343;44.588;33.450;2023-04-25T01:26:35;12.43;70.71
76855;DHT22;66343;44.588;33.450;2023-04-25T01:29:13;12.38;70.15
76855;DHT22;66343;44.588;33.450;2023-04-25T01:31:51;12.41;70.69
76855;DHT22;66343;44.588;33.450;2023-04-25T01:34:24;12.40;71.31
76855;DHT22;66343;44.588;33.450;2023-04-25T01:36:54;12.32;70.19
76855;DHT22;66343;44.588;33.450;2023-04-25T01:39:23;12.21;70.71
76855;DHT22;66343;44.588;33.450;2023-04-25T01:41:59;12.19;72.83
76855;DHT22;66343;44.588;33.450;2023-04-25T01:44:30;12.18;71.39
76855;DHT22;66343;44.588;33.450;2023-04-25T01:46:59;12.21;71.96
76855;DHT22;66343;44.588;33.450;2023-04-25T01:49:29;12.23;72.72
76855;DHT22;66343;44.588;33.450;2023-04-25T01:52:01;12.29;72.71
76855;DHT22;66343;44.588;33.450;2023-04-25T01:54:31;12.28;71.23
76855;DHT22;66343;44.588;33.450;2023-04-25T01:57:00;12.28;71.44
76855;DHT22;66343;44.588;33.450;2023-04-25T01:59:35;12.27;72.09
76855;DHT22;66343;44.588;33.450;2023-04-25T02:02:15;12.26;70.87
76855;DHT22;66343;44.588;33.450;2023-04-25T02:04:49;12.26;69.53
76855;DHT22;66343;44.588;33.450;2023-04-25T02:07:24;12.22;70.73
76855;DHT22;66343;44.588;33.450;2023-04-25T02:10:00;12.14;68.60
76855;DHT22;66343;44.588;33.450;2023-04-25T02:12:35;11.88;71.54
76855;DHT22;66343;44.588;33.450;2023-04-25T02:15:36;11.72;73.99
76855;DHT22;66343;44.588;33.450;2023-04-25T02:18:27;11.71;74.67
76855;DHT22;66343;44.588;33.450;2023-04-25T02:21:01;11.72;74.42
76855;DHT22;66343;44.588;33.450;2023-04-25T02:23:31;11.70;73.86
76855;DHT22;66343;44.588;33.450;2023-04-25T02:26:03;11.64;73.09
76855;DHT22;66343;44.588;33.450;2023-04-25T02:28:34;11.57;74.01
76855;DHT22;66343;44.588;33.450;2023-04-25T02:31:07;11.56;74.48
76855;DHT22;66343;44.588;33.450;2023-04-25T02:33:38;11.61;73.19
76855;DHT22;66343;44.588;33.450;2023-04-25T02:36:12;11.64;71.03
76855;DHT22;66343;44.588;33.450;2023-04-25T02:38:45;11.70;71.80
76855;DHT22;66343;44.588;33.450;2023-04-25T02:41:14;11.71;72.15
76855;DHT22;66343;44.588;33.450;2023-04-25T02:43:45;11.69;71.61
76855;DHT22;66343;44.588;33.450;2023-04-25T02:46:18;11.53;73.80
76855;DHT22;66343;44.588;33.450;2023-04-25T02:49:05;11.47;75.11
76855;DHT22;66343;44.588;33.450;2023-04-25T02:51:38;11.56;74.26
76855;DHT22;66343;44.588;33.450;2023-04-25T02:54:07;11.64;73.94
76855;DHT22;66343;44.588;33.450;2023-04-25T02:56:41;11.72;74.00
76855;DHT22;66343;44.588;33.450;2023-04-25T02:59:18;11.72;74.31
76855;DHT22;66343;44.588;33.450;2023-04-25T03:01:46;11.74;74.03
76855;DHT22;66343;44.588;33.450;2023-04-25T03:04:15;11.79;73.86
76855;DHT22;66343;44.588;33.450;2023-04-25T03:06:47;11.85;73.99
76855;DHT22;66343;44.588;33.450;2023-04-25T03:09:17;11.84;73.90
76855;DHT22;66343;44.588;33.450;2023-04-25T03:11:48;11.79;71.32
76855;DHT22;66343;44.588;33.450;2023-04-25T03:14:22;11.56;70.95
76855;DHT22;66343;44.588;33.450;2023-04-25T03:16:54;11.45;72.58
76855;DHT22;66343;44.588;33.450;2023-04-25T03:19:25;11.53;72.84
76855;DHT22;66343;44.588;33.450;2023-04-25T03:21:55;11.64;72.66
76855;DHT22;66343;44.588;33.450;2023-04-25T03:24:26;11.74;73.32
76855;DHT22;66343;44.588;33.450;2023-04-25T03:26:56;11.81;72.68
76855;DHT22;66343;44.588;33.450;2023-04-25T03:29:27;11.86;72.36
76855;DHT22;66343;44.588;33.450;2023-04-25T03:31:59;11.94;72.53
76855;DHT22;66343;44.588;33.450;2023-04-25T03:34:28;12.00;72.45
76855;DHT22;66343;44.588;33.450;2023-04-25T03:36:57;12.05;71.84
76855;DHT22;66343;44.588;33.450;2023-04-25T03:39:32;12.06;71.77
76855;DHT22;66343;44.588;33.450;2023-04-25T03:42:03;12.08;71.01
76855;DHT22;66343;44.588;33.450;2023-04-25T03:44:40;12.11;70.89
76855;DHT22;66343;44.588;33.450;2023-04-25T03:47:11;12.18;71.13
76855;DHT22;66343;44.588;33.450;2023-04-25T03:49:39;12.23;71.35
76855;DHT22;66343;44.588;33.450;2023-04-25T03:52:08;12.25;72.21
76855;DHT22;66343;44.588;33.450;2023-04-25T03:54:40;12.21;72.57
76855;DHT22;66343;44.588;33.450;2023-04-25T03:57:14;12.19;72.92
76855;DHT22;66343;44.588;33.450;2023-04-25T03:59:43;12.23;72.77
76855;DHT22;66343;44.588;33.450;2023-04-25T04:02:18;12.28;72.64
76855;DHT22;66343;44.588;33.450;2023-04-25T04:04:50;12.29;72.64
76855;DHT22;66343;44.588;33.450;2023-04-25T04:07:24;12.37;72.32
76855;DHT22;66343;44.588;33.450;2023-04-25T04:10:02;12.49;71.92
76855;DHT22;66343;44.588;33.450;2023-04-25T04:12:36;12.59;71.83
76855;DHT22;66343;44.588;33.450;2023-04-25T04:15:10;12.67;71.64
76855;DHT22;66343;44.588;33.450;2023-04-25T04:17:44;12.76;71.65
76855;DHT22;66343;44.588;33.450;2023-04-25T04:20:18;12.85;72.01
76855;DHT22;66343;44.588;33.450;2023-04-25T04:22:47;12.87;72.97
76855;DHT22;66343;44.588;33.450;2023-04-25T04:25:25;12.90;73.59
76855;DHT22;66343;44.588;33.450;2023-04-25T04:28:11;12.97;73.58
76855;DHT22;66343;44.588;33.450;2023-04-25T04:30:58;13.02;73.30
76855;DHT22;66343;44.588;33.450;2023-04-25T04:33:27;13.05;73.25
76855;DHT22;66343;44.588;33.450;2023-04-25T04:36:00;13.12;72.88
76855;DHT22;66343;44.588;33.450;2023-04-25T04:38:32;13.20;72.69
76855;DHT22;66343;44.588;33.450;2023-04-25T04:41:09;13.27;72.41
76855;DHT22;66343;44.588;33.450;2023-04-25T04:44:03;13.29;72.50
76855;DHT22;66343;44.588;33.450;2023-04-25T04:46:45;13.31;72.98
76855;DHT22;66343;44.588;33.450;2023-04-25T04:49:50;13.37;72.67
76855;DHT22;66343;44.588;33.450;2023-04-25T04:52:33;13.45;71.64
76855;DHT22;66343;44.588;33.450;2023-04-25T04:55:16;13.50;70.48
76855;DHT22;66343;44.588;33.450;2023-04-25T04:57:57;13.58;70.48
76855;DHT22;66343;44.588;33.450;2023-04-25T05:01:09;13.64;69.22
76855;DHT22;66343;44.588;33.450;2023-04-25T05:03:56;13.66;68.74
76855;DHT22;66343;44.588;33.450;2023-04-25T05:06:49;13.69;68.85
76855;DHT22;66343;44.588;33.450;2023-04-25T05:09:32;13.70;69.00
76855;DHT22;66343;44.588;33.450;2023-04-25T05:12:06;13.74;68.31
76855;DHT22;66343;44.588;33.450;2023-04-25T05:15:05;13.70;68.30
76855;DHT22;66343;44.588;33.450;2023-04-25T05:17:53;13.73;68.05
76855;DHT22;66343;44.588;33.450;2023-04-25T05:20:50;13.77;68.73
76855;DHT22;66343;44.588;33.450;2023-04-25T05:23:37;13.81;67.68
76855;DHT22;66343;44.588;33.450;2023-04-25T05:26:25;13.85;66.88
76855;DHT22;66343;44.588;33.450;2023-04-25T05:29:18;13.90;65.73
76855;DHT22;66343;44.588;33.450;2023-04-25T05:32:07;13.93;63.25
76855;DHT22;66343;44.588;33.450;2023-04-25T05:34:40;13.98;62.24
76855;DHT22;66343;44.588;33.450;2023-04-25T05:37:23;14.01;63.35
76855;DHT22;66343;44.588;33.450;2023-04-25T05:40:02;14.05;61.62
76855;DHT22;66343;44.588;33.450;2023-04-25T05:42:54;14.11;61.94
76855;DHT22;66343;44.588;33.450;2023-04-25T05:45:31;14.19;62.55
76855;DHT22;66343;44.588;33.450;2023-04-25T05:48:11;14.21;63.53
76855;DHT22;66343;44.588;33.450;2023-04-25T05:51:03;14.26;63.78
76855;DHT22;66343;44.588;33.450;2023-04-25T05:53:40;14.28;62.84
76855;DHT22;66343;44.588;33.450;2023-04-25T05:56:09;14.30;61.21
76855;DHT22;66343;44.588;33.450;2023-04-25T05:58:38;14.34;62.39
76855;DHT22;66343;44.588;33.450;2023-04-25T06:01:10;14.34;63.16
76855;DHT22;66343;44.588;33.450;2023-04-25T06:03:42;14.37;62.95
76855;DHT22;66343;44.588;33.450;2023-04-25T06:06:12;14.40;54.66
76855;DHT22;66343;44.588;33.450;2023-04-25T06:08:46;14.47;57.67
76855;DHT22;66343;44.588;33.450;2023-04-25T06:11:19;14.50;57.57
76855;DHT22;66343;44.588;33.450;2023-04-25T06:13:54;14.57;56.87
76855;DHT22;66343;44.588;33.450;2023-04-25T06:16:24;14.59;55.49
76855;DHT22;66343;44.588;33.450;2023-04-25T06:18:55;14.66;55.74
76855;DHT22;66343;44.588;33.450;2023-04-25T06:21:27;14.66;54.26
76855;DHT22;66343;44.588;33.450;2023-04-25T06:24:00;14.63;55.24
76855;DHT22;66343;44.588;33.450;2023-04-25T06:26:34;14.66;54.77
76855;DHT22;66343;44.588;33.450;2023-04-25T06:29:06;14.69;55.10
76855;DHT22;66343;44.588;33.450;2023-04-25T06:31:36;14.67;56.34
76855;DHT22;66343;44.588;33.450;2023-04-25T06:34:06;14.67;56.54
76855;DHT22;66343;44.588;33.450;2023-04-25T06:36:39;14.68;57.13
76855;DHT22;66343;44.588;33.450;2023-04-25T06:39:13;14.73;57.56
76855;DHT22;66343;44.588;33.450;2023-04-25T06:41:44;14.78;57.21
76855;DHT22;66343;44.588;33.450;2023-04-25T06:44:36;14.79;53.52
76855;DHT22;66343;44.588;33.450;2023-04-25T06:47:09;14.81;51.37
76855;DHT22;66343;44.588;33.450;2023-04-25T06:49:39;14.79;52.90
76855;DHT22;66343;44.588;33.450;2023-04-25T06:52:14;14.84;54.87
76855;DHT22;66343;44.588;33.450;2023-04-25T06:54:44;14.85;55.87
76855;DHT22;66343;44.588;33.450;2023-04-25T06:57:37;14.95;55.76
76855;DHT22;66343;44.588;33.450;2023-04-25T07:00:33;14.93;55.80
76855;DHT22;66343;44.588;33.450;2023-04-25T07:03:05;14.95;57.50
76855;DHT22;66343;44.588;33.450;2023-04-25T07:05:35;14.92;57.73
76855;DHT22;66343;44.588;33.450;2023-04-25T07:08:08;14.94;58.96
76855;DHT22;66343;44.588;33.450;2023-04-25T07:10:42;14.96;58.66
76855;DHT22;66343;44.588;33.450;2023-04-25T07:13:14;14.98;59.41
76855;DHT22;66343;44.588;33.450;2023-04-25T07:15:45;15.03;59.84
76855;DHT22;66343;44.588;33.450;2023-04-25T07:18:23;15.10;59.25
76855;DHT22;66343;44.588;33.450;2023-04-25T07:20:53;15.08;58.86
76855;DHT22;66343;44.588;33.450;2023-04-25T07:23:25;15.06;59.77
76855;DHT22;66343;44.588;33.450;2023-04-25T07:25:54;15.14;60.40
76855;DHT22;66343;44.588;33.450;2023-04-25T07:28:29;15.14;60.93
76855;DHT22;66343;44.588;33.450;2023-04-25T07:31:06;15.07;61.48
76855;DHT22;66343;44.588;33.450;2023-04-25T07:33:36;14.97;63.15
76855;DHT22;66343;44.588;33.450;2023-04-25T07:36:12;14.94;64.37
76855;DHT22;66343;44.588;33.450;2023-04-25T07:38:42;14.96;63.81
76855;DHT22;66343;44.588;33.450;2023-04-25T07:41:17;14.96;63.45
76855;DHT22;66343;44.588;33.450;2023-04-25T07:43:47;14.97;61.95
76855;DHT22;66343;44.588;33.450;2023-04-25T07:46:21;14.98;61.07
76855;DHT22;66343;44.588;33.450;2023-04-25T07:48:50;15.09;57.77
76855;DHT22;66343;44.588;33.450;2023-04-25T07:51:22;15.00;52.91
76855;DHT22;66343;44.588;33.450;2023-04-25T07:53:53;14.95;54.75
76855;DHT22;66343;44.588;33.450;2023-04-25T07:56:25;14.96;54.32
76855;DHT22;66343;44.588;33.450;2023-04-25T07:58:54;15.07;50.87
76855;DHT22;66343;44.588;33.450;2023-04-25T08:01:24;15.02;51.45
76855;DHT22;66343;44.588;33.450;2023-04-25T08:03:58;14.95;53.70
76855;DHT22;66343;44.588;33.450;2023-04-25T08:06:46;14.89;53.16
76855;DHT22;66343;44.588;33.450;2023-04-25T08:09:23;14.85;51.38
76855;DHT22;66343;44.588;33.450;2023-04-25T08:11:55;14.88;50.67
76855;DHT22;66343;44.588;33.450;2023-04-25T08:14:29;15.04;49.89
76855;DHT22;66343;44.588;33.450;2023-04-25T08:17:05;15.06;49.13
76855;DHT22;66343;44.588;33.450;2023-04-25T08:19:45;15.02;50.69
76855;DHT22;66343;44.588;33.450;2023-04-25T08:22:24;14.96;50.30
76855;DHT22;66343;44.588;33.450;2023-04-25T08:25:17;14.92;51.62
76855;DHT22;66343;44.588;33.450;2023-04-25T08:27:49;14.88;53.10
76855;DHT22;66343;44.588;33.450;2023-04-25T08:30:21;14.98;51.50
76855;DHT22;66343;44.588;33.450;2023-04-25T08:32:51;15.06;50.61
76855;DHT22;66343;44.588;33.450;2023-04-25T08:35:44;15.15;52.07
76855;DHT22;66343;44.588;33.450;2023-04-25T08:38:18;15.30;54.46
76855;DHT22;66343;44.588;33.450;2023-04-25T08:40:50;15.11;55.96
76855;DHT22;66343;44.588;33.450;2023-04-25T08:43:23;15.22;56.09
76855;DHT22;66343;44.588;33.450;2023-04-25T08:45:56;15.00;59.37
76855;DHT22;66343;44.588;33.450;2023-04-25T08:48:36;15.06;58.17
76855;DHT22;66343;44.588;33.450;2023-04-25T08:51:07;15.21;57.32
76855;DHT22;66343;44.588;33.450;2023-04-25T08:53:43;15.30;54.56
76855;DHT22;66343;44.588;33.450;2023-04-25T08:56:16;15.34;55.03
76855;DHT22;66343;44.588;33.450;2023-04-25T08:58:53;15.33;55.47
76855;DHT22;66343;44.588;33.450;2023-04-25T09:01:23;15.34;53.01
76855;DHT22;66343;44.588;33.450;2023-04-25T09:03:57;15.33;51.46
76855;DHT22;66343;44.588;33.450;2023-04-25T09:06:30;15.44;48.63
76855;DHT22;66343;44.588;33.450;2023-04-25T09:09:09;15.58;49.89
76855;DHT22;66343;44.588;33.450;2023-04-25T09:11:42;15.47;47.48
76855;DHT22;66343;44.588;33.450;2023-04-25T09:14:22;15.23;50.51
76855;DHT22;66343;44.588;33.450;2023-04-25T09:17:07;15.02;52.14
76855;DHT22;66343;44.588;33.450;2023-04-25T09:19:42;15.13;53.14
76855;DHT22;66343;44.588;33.450;2023-04-25T09:22:32;15.54;53.89
76855;DHT22;66343;44.588;33.450;2023-04-25T09:25:10;15.55;55.36
76855;DHT22;66343;44.588;33.450;2023-04-25T09:27:50;15.71;52.72
76855;DHT22;66343;44.588;33.450;2023-04-25T09:30:33;15.78;53.65
76855;DHT22;66343;44.588;33.450;2023-04-25T09:33:10;15.70;52.49
76855;DHT22;66343;44.588;33.450;2023-04-25T09:35:47;15.58;53.78
76855;DHT22;66343;44.588;33.450;2023-04-25T09:38:43;15.55;55.81
76855;DHT22;66343;44.588;33.450;2023-04-25T09:41:24;15.63;55.52
76855;DHT22;66343;44.588;33.450;2023-04-25T09:43:57;15.66;52.98
76855;DHT22;66343;44.588;33.450;2023-04-25T09:46:39;15.52;54.96
76855;DHT22;66343;44.588;33.450;2023-04-25T09:49:23;15.68;55.10
76855;DHT22;66343;44.588;33.450;2023-04-25T09:52:19;15.99;53.68
76855;DHT22;66343;44.588;33.450;2023-04-25T09:55:16;16.19;52.46
76855;DHT22;66343;44.588;33.450;2023-04-25T09:57:51;16.13;50.99
76855;DHT22;66343;44.588;33.450;2023-04-25T10:00:26;15.96;51.55
76855;DHT22;66343;44.588;33.450;2023-04-25T10:03:03;15.91;52.98
76855;DHT22;66343;44.588;33.450;2023-04-25T10:06:05;16.13;53.45
76855;DHT22;66343;44.588;33.450;2023-04-25T10:08:38;16.03;51.79
76855;DHT22;66343;44.588;33.450;2023-04-25T10:11:11;16.06;51.59
76855;DHT22;66343;44.588;33.450;2023-04-25T10:13:44;15.99;51.44
76855;DHT22;66343;44.588;33.450;2023-04-25T10:16:14;16.14;52.81
76855;DHT22;66343;44.588;33.450;2023-04-25T10:18:45;16.04;50.63
76855;DHT22;66343;44.588;33.450;2023-04-25T10:21:17;15.99;53.20
76855;DHT22;66343;44.588;33.450;2023-04-25T10:23:51;15.95;53.59
76855;DHT22;66343;44.588;33.450;2023-04-25T10:26:26;16.06;53.25
76855;DHT22;66343;44.588;33.450;2023-04-25T10:29:02;16.01;51.09
76855;DHT22;66343;44.588;33.450;2023-04-25T10:31:33;16.08;52.75
76855;DHT22;66343;44.588;33.450;2023-04-25T10:34:06;16.08;51.30
76855;DHT22;66343;44.588;33.450;2023-04-25T10:36:38;16.06;54.35
76855;DHT22;66343;44.588;33.450;2023-04-25T10:39:09;16.28;55.34
76855;DHT22;66343;44.588;33.450;2023-04-25T10:41:54;16.66;52.40
76855;DHT22;66343;44.588;33.450;2023-04-25T10:44:29;16.79;49.23
76855;DHT22;66343;44.588;33.450;2023-04-25T10:47:02;16.77;52.03
76855;DHT22;66343;44.588;33.450;2023-04-25T10:49:42;16.65;51.28
76855;DHT22;66343;44.588;33.450;2023-04-25T10:52:12;16.62;50.05
76855;DHT22;66343;44.588;33.450;2023-04-25T10:54:57;16.81;49.93
76855;DHT22;66343;44.588;33.450;2023-04-25T11:05:32;17.33;47.91
76855;DHT22;66343;44.588;33.450;2023-04-25T11:08:35;17.36;49.07
76855;DHT22;66343;44.588;33.450;2023-04-25T11:11:08;17.38;46.17
76855;DHT22;66343;44.588;33.450;2023-04-25T11:13:37;17.59;43.75
76855;DHT22;66343;44.588;33.450;2023-04-25T11:16:09;17.74;43.84
76855;DHT22;66343;44.588;33.450;2023-04-25T11:18:47;17.83;41.67
76855;DHT22;66343;44.588;33.450;2023-04-25T11:21:37;18.22;41.38
76855;DHT22;66343;44.588;33.450;2023-04-25T11:24:11;18.14;40.87
76855;DHT22;66343;44.588;33.450;2023-04-25T11:26:46;18.04;39.34
76855;DHT22;66343;44.588;33.450;2023-04-25T11:29:16;17.96;40.33
76855;DHT22;66343;44.588;33.450;2023-04-25T11:31:45;18.22;41.52
76855;DHT22;66343;44.588;33.450;2023-04-25T11:34:19;18.44;40.78
76855;DHT22;66343;44.588;33.450;2023-04-25T11:36:53;18.36;42.18
76855;DHT22;66343;44.588;33.450;2023-04-25T11:39:24;18.54;41.35
76855;DHT22;66343;44.588;33.450;2023-04-25T11:41:59;18.47;41.30
76855;DHT22;66343;44.588;33.450;2023-04-25T11:44:38;18.47;41.58
76855;DHT22;66343;44.588;33.450;2023-04-25T11:47:10;18.58;40.76
76855;DHT22;66343;44.588;33.450;2023-04-25T11:49:40;18.72;42.19
76855;DHT22;66343;44.588;33.450;2023-04-25T11:52:14;18.68;41.58
76855;DHT22;66343;44.588;33.450;2023-04-25T11:54:45;18.79;41.70
76855;DHT22;66343;44.588;33.450;2023-04-25T11:57:19;18.65;41.85
76855;DHT22;66343;44.588;33.450;2023-04-25T11:59:49;18.62;40.46
76855;DHT22;66343;44.588;33.450;2023-04-25T12:02:25;18.55;41.33
76855;DHT22;66343;44.588;33.450;2023-04-25T12:04:59;18.38;45.18
76855;DHT22;66343;44.588;33.450;2023-04-25T12:07:49;18.51;42.49
76855;DHT22;66343;44.588;33.450;2023-04-25T12:10:21;18.69;43.51
76855;DHT22;66343;44.588;33.450;2023-04-25T12:12:50;18.95;43.39
76855;DHT22;66343;44.588;33.450;2023-04-25T12:15:25;18.95;43.34
76855;DHT22;66343;44.588;33.450;2023-04-25T12:17:55;19.00;42.58
76855;DHT22;66343;44.588;33.450;2023-04-25T12:20:31;18.85;44.06
76855;DHT22;66343;44.588;33.450;2023-04-25T12:23:00;18.48;43.43
76855;DHT22;66343;44.588;33.450;2023-04-25T12:25:44;18.25;45.17
76855;DHT22;66343;44.588;33.450;2023-04-25T12:28:22;18.03;45.26
76855;DHT22;66343;44.588;33.450;2023-04-25T12:31:06;17.65;46.55
76855;DHT22;66343;44.588;33.450;2023-04-25T12:33:36;17.55;48.91
76855;DHT22;66343;44.588;33.450;2023-04-25T12:36:10;17.52;50.95
76855;DHT22;66343;44.588;33.450;2023-04-25T12:38:42;17.68;51.34
76855;DHT22;66343;44.588;33.450;2023-04-25T12:41:11;17.89;49.59
76855;DHT22;66343;44.588;33.450;2023-04-25T12:43:43;18.11;48.41
76855;DHT22;66343;44.588;33.450;2023-04-25T12:46:18;18.14;47.83
76855;DHT22;66343;44.588;33.450;2023-04-25T12:48:47;18.37;48.99
76855;DHT22;66343;44.588;33.450;2023-04-25T12:51:19;18.87;46.94
76855;DHT22;66343;44.588;33.450;2023-04-25T12:53:56;19.24;45.84
76855;DHT22;66343;44.588;33.450;2023-04-25T12:56:29;19.88;44.70
76855;DHT22;66343;44.588;33.450;2023-04-25T12:59:02;19.87;44.10
76855;DHT22;66343;44.588;33.450;2023-04-25T13:01:36;19.59;44.25
76855;DHT22;66343;44.588;33.450;2023-04-25T13:04:06;19.56;43.96
76855;DHT22;66343;44.588;33.450;2023-04-25T13:06:42;19.55;43.29
76855;DHT22;66343;44.588;33.450;2023-04-25T13:09:14;19.51;44.77
76855;DHT22;66343;44.588;33.450;2023-04-25T13:11:44;19.53;43.97
76855;DHT22;66343;44.588;33.450;2023-04-25T13:14:19;19.66;45.15
76855;DHT22;66343;44.588;33.450;2023-04-25T13:16:49;19.92;45.11
76855;DHT22;66343;44.588;33.450;2023-04-25T13:19:19;20.24;44.25
76855;DHT22;66343;44.588;33.450;2023-04-25T13:21:49;20.41;42.60
76855;DHT22;66343;44.588;33.450;2023-04-25T13:24:21;20.43;42.14
76855;DHT22;66343;44.588;33.450;2023-04-25T13:26:53;20.39;42.88
76855;DHT22;66343;44.588;33.450;2023-04-25T13:29:27;20.32;42.26
76855;DHT22;66343;44.588;33.450;2023-04-25T13:31:56;20.26;42.37
76855;DHT22;66343;44.588;33.450;2023-04-25T13:34:28;19.92;43.29
76855;DHT22;66343;44.588;33.450;2023-04-25T13:37:01;20.03;43.75
76855;DHT22;66343;44.588;33.450;2023-04-25T13:39:34;20.17;43.15
76855;DHT22;66343;44.588;33.450;2023-04-25T13:42:07;20.09;42.57
76855;DHT22;66343;44.588;33.450;2023-04-25T13:44:36;20.29;40.21
76855;DHT22;66343;44.588;33.450;2023-04-25T13:47:07;20.57;41.81
76855;DHT22;66343;44.588;33.450;2023-04-25T13:49:36;20.27;40.50
76855;DHT22;66343;44.588;33.450;2023-04-25T13:52:08;20.28;40.25
76855;DHT22;66343;44.588;33.450;2023-04-25T13:54:41;20.06;41.87
76855;DHT22;66343;44.588;33.450;2023-04-25T13:57:16;20.20;41.10
76855;DHT22;66343;44.588;33.450;2023-04-25T13:59:46;20.31;40.65
76855;DHT22;66343;44.588;33.450;2023-04-25T14:02:17;20.40;40.33
76855;DHT22;66343;44.588;33.450;2023-04-25T14:04:48;20.51;40.65
76855;DHT22;66343;44.588;33.450;2023-04-25T14:07:20;20.65;39.13
76855;DHT22;66343;44.588;33.450;2023-04-25T14:09:50;20.85;38.24
76855;DHT22;66343;44.588;33.450;2023-04-25T14:12:23;20.62;38.47
76855;DHT22;66343;44.588;33.450;2023-04-25T14:14:56;20.71;38.53
76855;DHT22;66343;44.588;33.450;2023-04-25T14:17:28;20.88;38.52
76855;DHT22;66343;44.588;33.450;2023-04-25T14:19:58;20.96;38.52
76855;DHT22;66343;44.588;33.450;2023-04-25T14:22:30;20.84;38.20
76855;DHT22;66343;44.588;33.450;2023-04-25T14:25:03;20.89;37.89
76855;DHT22;66343;44.588;33.450;2023-04-25T14:27:34;20.90;38.73
76855;DHT22;66343;44.588;33.450;2023-04-25T14:30:03;20.87;37.64
76855;DHT22;66343;44.588;33.450;2023-04-25T14:32:33;20.55;38.43
76855;DHT22;66343;44.588;33.450;2023-04-25T14:35:08;20.41;38.48
76855;DHT22;66343;44.588;33.450;2023-04-25T14:37:37;20.21;38.76
76855;DHT22;66343;44.588;33.450;2023-04-25T14:40:14;20.42;38.57
76855;DHT22;66343;44.588;33.450;2023-04-25T14:42:46;20.00;37.52
76855;DHT22;66343;44.588;33.450;2023-04-25T14:45:18;19.72;38.86
76855;DHT22;66343;44.588;33.450;2023-04-25T14:47:51;19.88;37.96
76855;DHT22;66343;44.588;33.450;2023-04-25T14:50:22;19.91;38.04
76855;DHT22;66343;44.588;33.450;2023-04-25T14:52:51;19.96;37.82
76855;DHT22;66343;44.588;33.450;2023-04-25T14:55:22;20.02;37.64
76855;DHT22;66343;44.588;33.450;2023-04-25T14:57:53;20.10;37.03
76855;DHT22;66343;44.588;33.450;2023-04-25T15:00:27;19.88;37.68
76855;DHT22;66343;44.588;33.450;2023-04-25T15:02:58;19.86;37.43
76855;DHT22;66343;44.588;33.450;2023-04-25T15:05:28;19.75;37.68
76855;DHT22;66343;44.588;33.450;2023-04-25T15:08:03;19.77;37.59
76855;DHT22;66343;44.588;33.450;2023-04-25T15:10:36;19.75;37.45
76855;DHT22;66343;44.588;33.450;2023-04-25T15:13:09;19.62;38.65
76855;DHT22;66343;44.588;33.450;2023-04-25T15:15:39;19.83;37.73
76855;DHT22;66343;44.588;33.450;2023-04-25T15:18:09;19.87;38.04
76855;DHT22;66343;44.588;33.450;2023-04-25T15:20:42;19.70;37.84
76855;DHT22;66343;44.588;33.450;2023-04-25T15:23:12;19.33;37.83
76855;DHT22;66343;44.588;33.450;2023-04-25T15:25:42;18.89;38.98
76855;DHT22;66343;44.588;33.450;2023-04-25T15:28:15;18.41;40.17
76855;DHT22;66343;44.588;33.450;2023-04-25T15:30:46;18.13;40.97
76855;DHT22;66343;44.588;33.450;2023-04-25T15:33:18;17.70;41.61
76855;DHT22;66343;44.588;33.450;2023-04-25T15:35:51;17.40;42.23
76855;DHT22;66343;44.588;33.450;2023-04-25T15:38:25;17.19;42.33
76855;DHT22;66343;44.588;33.450;2023-04-25T15:40:55;17.02;42.04
76855;DHT22;66343;44.588;33.450;2023-04-25T15:43:29;16.96;41.95
76855;DHT22;66343;44.588;33.450;2023-04-25T15:49:41;17.05;42.12
76855;DHT22;66343;44.588;33.450;2023-04-25T15:52:12;17.09;42.58
76855;DHT22;66343;44.588;33.450;2023-04-25T15:54:43;17.21;42.47
76855;DHT22;66343;44.588;33.450;2023-04-25T15:57:13;17.30;42.29
76855;DHT22;66343;44.588;33.450;2023-04-25T15:59:44;17.32;42.03
76855;DHT22;66343;44.588;33.450;2023-04-25T16:02:16;17.20;42.71
76855;DHT22;66343;44.588;33.450;2023-04-25T16:04:46;17.13;43.49
76855;DHT22;66343;44.588;33.450;2023-04-25T16:07:19;17.14;43.71
76855;DHT22;66343;44.588;33.450;2023-04-25T16:09:52;17.13;43.72
76855;DHT22;66343;44.588;33.450;2023-04-25T16:12:21;16.96;44.15